createdAt,value
2022-10-06T00:00:04.230Z,1
2022-10-06T00:01:04.284Z,1
2022-10-06T00:02:07.145Z,1
2022-10-06T00:03:04.240Z,1
2022-10-06T00:04:04.261Z,1
2022-10-06T00:05:04.208Z,1
2022-10-06T00:06:04.204Z,1
2022-10-06T00:07:04.234Z,1
2022-10-06T00:08:04.216Z,1
2022-10-06T00:09:04.206Z,1
2022-10-06T00:10:04.208Z,1
2022-10-06T00:12:05.346Z,0
2022-10-06T00:13:05.321Z,1
2022-10-06T00:14:05.321Z,1
2022-10-06T00:15:05.331Z,1
2022-10-06T00:16:05.408Z,1
2022-10-06T00:17:05.340Z,1
2022-10-06T00:18:05.318Z,1
2022-10-06T00:19:05.326Z,1
2022-10-06T00:20:05.358Z,1
2022-10-06T00:21:05.324Z,1
2022-10-06T00:22:05.327Z,1
2022-10-06T00:23:05.316Z,1
2022-10-06T00:24:05.347Z,1
2022-10-06T00:25:05.338Z,1
2022-10-06T00:26:05.323Z,1
2022-10-06T00:27:05.313Z,1
2022-10-06T00:28:05.385Z,1
2022-10-06T00:29:05.335Z,1
2022-10-06T00:30:05.320Z,1
2022-10-06T00:31:05.404Z,1
2022-10-06T00:32:05.330Z,1
2022-10-06T00:33:05.333Z,1
2022-10-06T00:34:05.325Z,1
2022-10-06T00:35:05.319Z,1
2022-10-06T00:36:05.342Z,1
2022-10-06T00:37:05.350Z,1
2022-10-06T00:38:05.328Z,1
2022-10-06T00:39:05.328Z,1
2022-10-06T00:40:05.333Z,1
2022-10-06T00:41:05.342Z,1
2022-10-06T00:42:05.328Z,1
2022-10-06T00:43:05.374Z,1
2022-10-06T00:44:05.340Z,1
2022-10-06T00:45:05.336Z,1
2022-10-06T00:46:05.382Z,1
2022-10-06T00:47:05.325Z,1
2022-10-06T00:48:05.358Z,1
2022-10-06T00:50:05.335Z,1
2022-10-06T00:51:05.339Z,1
2022-10-06T00:52:05.329Z,1
2022-10-06T00:53:05.350Z,1
2022-10-06T00:54:05.330Z,1
2022-10-06T00:55:05.334Z,1
2022-10-06T00:56:05.334Z,1
2022-10-06T00:57:05.337Z,1
2022-10-06T00:58:05.329Z,1
2022-10-06T00:59:05.344Z,1
2022-10-06T01:00:05.330Z,1
2022-10-06T01:01:05.389Z,1
2022-10-06T01:02:05.334Z,1
2022-10-06T01:03:05.415Z,1
2022-10-06T01:04:05.339Z,1
2022-10-06T01:06:05.353Z,1
2022-10-06T01:07:05.357Z,1
2022-10-06T01:08:05.389Z,1
2022-10-06T01:09:05.326Z,1
2022-10-06T01:10:05.332Z,1
2022-10-06T01:11:05.359Z,1
2022-10-06T01:12:05.326Z,1
2022-10-06T01:13:05.351Z,1
2022-10-06T01:14:05.353Z,1
2022-10-06T01:15:05.329Z,1
2022-10-06T01:16:05.401Z,1
2022-10-06T01:17:05.339Z,1
2022-10-06T01:18:05.336Z,1
2022-10-06T01:19:05.331Z,1
2022-10-06T01:20:05.337Z,1
2022-10-06T01:21:05.325Z,1
2022-10-06T01:22:05.359Z,1
2022-10-06T01:23:05.350Z,1
2022-10-06T01:24:05.335Z,1
2022-10-06T01:25:05.332Z,1
2022-10-06T01:26:05.350Z,1
2022-10-06T01:27:05.348Z,1
2022-10-06T01:28:05.374Z,1
2022-10-06T01:29:05.324Z,2
2022-10-06T01:30:05.334Z,2
2022-10-06T01:31:05.408Z,2
2022-10-06T01:32:05.331Z,2
2022-10-06T01:33:05.332Z,2
2022-10-06T01:34:05.331Z,1
2022-10-06T01:35:05.341Z,2
2022-10-06T01:36:05.341Z,1
2022-10-06T01:37:05.374Z,1
2022-10-06T01:38:05.336Z,2
2022-10-06T01:39:05.340Z,2
2022-10-06T01:40:05.352Z,1
2022-10-06T01:41:05.386Z,2
2022-10-06T01:42:05.329Z,1
2022-10-06T01:43:05.344Z,1
2022-10-06T01:44:05.344Z,1
2022-10-06T01:45:05.365Z,1
2022-10-06T01:46:05.417Z,1
2022-10-06T01:47:05.330Z,1
2022-10-06T01:48:05.328Z,1
2022-10-06T01:49:05.332Z,1
2022-10-06T01:50:05.337Z,1
2022-10-06T01:51:05.348Z,1
2022-10-06T01:52:05.346Z,1
2022-10-06T01:53:05.331Z,1
2022-10-06T01:54:05.339Z,1
2022-10-06T01:55:05.362Z,2
2022-10-06T01:56:05.335Z,1
2022-10-06T01:57:05.335Z,1
2022-10-06T01:58:05.341Z,1
2022-10-06T01:59:05.330Z,1
2022-10-06T02:00:05.333Z,1
2022-10-06T02:01:05.339Z,1
2022-10-06T02:02:05.435Z,1
2022-10-06T02:03:05.360Z,1
2022-10-06T02:04:05.460Z,1
2022-10-06T02:05:05.346Z,1
2022-10-06T02:06:05.444Z,1
2022-10-06T02:07:05.376Z,1
2022-10-06T02:08:05.335Z,1
2022-10-06T02:09:05.331Z,1
2022-10-06T02:10:05.340Z,1
2022-10-06T02:11:05.384Z,1
2022-10-06T02:12:05.354Z,1
2022-10-06T02:13:05.332Z,1
2022-10-06T02:14:05.348Z,1
2022-10-06T02:15:05.359Z,1
2022-10-06T02:16:05.451Z,1
2022-10-06T02:17:05.351Z,1
2022-10-06T02:18:05.328Z,1
2022-10-06T02:19:05.348Z,1
2022-10-06T02:20:05.340Z,1
2022-10-06T02:21:05.362Z,1
2022-10-06T02:22:05.376Z,1
2022-10-06T02:23:05.342Z,1
2022-10-06T02:24:05.345Z,1
2022-10-06T02:25:05.329Z,1
2022-10-06T02:26:05.338Z,1
2022-10-06T02:28:05.379Z,1
2022-10-06T02:29:05.338Z,2
2022-10-06T02:30:05.338Z,1
2022-10-06T02:31:05.441Z,1
2022-10-06T02:32:05.352Z,1
2022-10-06T02:33:05.331Z,1
2022-10-06T02:34:05.341Z,1
2022-10-06T02:35:05.345Z,1
2022-10-06T02:36:05.369Z,1
2022-10-06T02:37:05.394Z,1
2022-10-06T02:38:05.330Z,1
2022-10-06T02:39:05.362Z,1
2022-10-06T02:40:05.339Z,1
2022-10-06T02:41:05.339Z,2
2022-10-06T02:42:05.353Z,1
2022-10-06T02:43:05.349Z,1
2022-10-06T02:44:05.336Z,1
2022-10-06T02:45:05.337Z,2
2022-10-06T02:46:05.444Z,1
2022-10-06T02:47:05.405Z,1
2022-10-06T02:48:05.348Z,1
2022-10-06T02:49:05.339Z,2
2022-10-06T02:50:05.344Z,2
2022-10-06T02:51:05.363Z,2
2022-10-06T02:52:05.355Z,2
2022-10-06T02:53:05.329Z,1
2022-10-06T02:54:05.333Z,2
2022-10-06T02:55:05.349Z,2
2022-10-06T02:56:05.381Z,1
2022-10-06T02:57:05.341Z,1
2022-10-06T02:58:05.347Z,1
2022-10-06T02:59:05.346Z,1
2022-10-06T03:00:05.346Z,2
2022-10-06T03:01:05.357Z,1
2022-10-06T03:02:05.438Z,1
2022-10-06T03:03:05.414Z,1
2022-10-06T03:04:05.340Z,1
2022-10-06T03:05:05.359Z,1
2022-10-06T03:06:05.372Z,2
2022-10-06T03:07:05.383Z,2
2022-10-06T03:08:05.406Z,1
2022-10-06T03:09:05.355Z,1
2022-10-06T03:10:05.363Z,1
2022-10-06T03:11:05.352Z,1
2022-10-06T03:12:05.346Z,1
2022-10-06T03:13:05.357Z,1
2022-10-06T03:14:05.358Z,1
2022-10-06T03:15:05.352Z,2
2022-10-06T03:16:05.471Z,1
2022-10-06T03:17:05.349Z,1
2022-10-06T03:18:05.523Z,1
2022-10-06T03:19:05.337Z,2
2022-10-06T03:20:05.345Z,2
2022-10-06T03:21:05.368Z,1
2022-10-06T03:22:05.373Z,2
2022-10-06T03:23:06.144Z,1
2022-10-06T03:24:05.353Z,1
2022-10-06T03:25:05.353Z,2
2022-10-06T03:26:05.381Z,1
2022-10-06T03:27:05.416Z,1
2022-10-06T03:28:05.398Z,1
2022-10-06T03:29:10.532Z,2
2022-10-06T03:30:05.368Z,2
2022-10-06T03:31:05.453Z,1
2022-10-06T03:32:05.432Z,1
2022-10-06T03:33:05.360Z,1
2022-10-06T03:34:05.357Z,2
2022-10-06T03:35:05.339Z,1
2022-10-06T03:36:05.365Z,2
2022-10-06T03:37:05.379Z,2
2022-10-06T03:38:05.349Z,2
2022-10-06T03:39:05.351Z,1
2022-10-06T03:40:05.361Z,1
2022-10-06T03:41:05.362Z,1
2022-10-06T03:42:05.347Z,1
2022-10-06T03:43:05.348Z,2
2022-10-06T03:44:05.347Z,1
2022-10-06T03:45:05.364Z,1
2022-10-06T03:46:05.352Z,1
2022-10-06T03:47:05.426Z,2
2022-10-06T03:48:05.358Z,2
2022-10-06T03:49:05.381Z,1
2022-10-06T03:50:05.347Z,1
2022-10-06T03:51:05.361Z,2
2022-10-06T03:52:05.392Z,1
2022-10-06T03:53:05.355Z,1
2022-10-06T03:54:05.380Z,1
2022-10-06T03:55:05.361Z,1
2022-10-06T03:56:05.379Z,2
2022-10-06T03:57:05.360Z,2
2022-10-06T03:58:05.353Z,1
2022-10-06T03:59:05.345Z,2
2022-10-06T04:00:05.343Z,1
2022-10-06T04:01:05.431Z,1
2022-10-06T04:02:05.543Z,1
2022-10-06T04:03:05.363Z,2
2022-10-06T04:04:05.393Z,2
2022-10-06T04:05:05.356Z,1
2022-10-06T04:06:05.360Z,2
2022-10-06T04:07:05.370Z,2
2022-10-06T04:08:05.358Z,2
2022-10-06T04:09:05.358Z,1
2022-10-06T04:10:05.343Z,2
2022-10-06T04:11:05.391Z,1
2022-10-06T04:12:05.365Z,1
2022-10-06T04:13:05.385Z,2
2022-10-06T04:14:05.367Z,2
2022-10-06T04:15:05.407Z,2
2022-10-06T04:16:05.421Z,2
2022-10-06T04:17:05.377Z,1
2022-10-06T04:18:05.363Z,2
2022-10-06T04:19:05.356Z,1
2022-10-06T04:20:05.379Z,2
2022-10-06T04:21:05.380Z,2
2022-10-06T04:22:05.374Z,1
2022-10-06T04:23:05.391Z,2
2022-10-06T04:24:05.361Z,2
2022-10-06T04:25:05.383Z,2
2022-10-06T04:26:05.375Z,2
2022-10-06T04:27:05.396Z,2
2022-10-06T04:28:05.400Z,2
2022-10-06T04:29:05.370Z,2
2022-10-06T04:30:05.368Z,1
2022-10-06T04:31:05.393Z,2
2022-10-06T04:32:05.381Z,2
2022-10-06T04:33:05.405Z,2
2022-10-06T04:34:05.374Z,1
2022-10-06T04:35:05.370Z,2
2022-10-06T04:36:05.392Z,2
2022-10-06T04:37:05.365Z,2
2022-10-06T04:38:05.385Z,2
2022-10-06T04:39:05.382Z,2
2022-10-06T04:40:05.359Z,1
2022-10-06T04:41:05.398Z,2
2022-10-06T04:42:05.372Z,2
2022-10-06T04:43:05.374Z,2
2022-10-06T04:44:05.377Z,2
2022-10-06T04:45:05.364Z,1
2022-10-06T04:46:18.375Z,2
2022-10-06T04:47:05.462Z,2
2022-10-06T04:48:05.371Z,1
2022-10-06T04:49:05.354Z,2
2022-10-06T04:50:05.367Z,2
2022-10-06T04:51:05.413Z,2
2022-10-06T04:52:05.377Z,2
2022-10-06T04:53:05.379Z,2
2022-10-06T04:54:05.369Z,1
2022-10-06T04:55:05.388Z,2
2022-10-06T04:56:05.379Z,2
2022-10-06T04:57:05.382Z,2
2022-10-06T04:58:05.400Z,1
2022-10-06T04:59:05.365Z,2
2022-10-06T05:00:08.890Z,2
2022-10-06T05:01:05.454Z,2
2022-10-06T05:02:05.440Z,2
2022-10-06T05:03:05.358Z,1
2022-10-06T05:04:05.370Z,2
2022-10-06T05:05:05.372Z,2
2022-10-06T05:06:05.383Z,2
2022-10-06T05:07:05.356Z,1
2022-10-06T05:08:05.369Z,2
2022-10-06T05:09:05.385Z,2
2022-10-06T05:10:05.354Z,2
2022-10-06T05:11:05.378Z,2
2022-10-06T05:12:05.371Z,1
2022-10-06T05:13:05.382Z,2
2022-10-06T05:14:05.369Z,2
2022-10-06T05:16:05.492Z,2
2022-10-06T05:17:05.393Z,2
2022-10-06T05:18:05.357Z,2
2022-10-06T05:19:05.354Z,1
2022-10-06T05:20:05.370Z,2
2022-10-06T05:21:06.758Z,2
2022-10-06T05:22:05.460Z,1
2022-10-06T05:23:05.384Z,1
2022-10-06T05:24:05.384Z,2
2022-10-06T05:25:05.375Z,2
2022-10-06T05:26:05.372Z,1
2022-10-06T05:27:05.368Z,2
2022-10-06T05:28:05.419Z,2
2022-10-06T05:29:05.351Z,2
2022-10-06T05:30:05.371Z,1
2022-10-06T05:31:05.385Z,2
2022-10-06T05:32:05.461Z,2
2022-10-06T05:33:05.368Z,2
2022-10-06T05:34:05.370Z,1
2022-10-06T05:35:05.367Z,2
2022-10-06T05:36:05.387Z,2
2022-10-06T05:37:05.364Z,1
2022-10-06T05:38:05.381Z,2
2022-10-06T05:39:05.377Z,1
2022-10-06T05:40:05.353Z,2
2022-10-06T05:41:05.398Z,2
2022-10-06T05:42:05.362Z,2
2022-10-06T05:43:05.362Z,1
2022-10-06T05:44:05.365Z,2
2022-10-06T05:45:05.357Z,2
2022-10-06T05:46:05.641Z,1
2022-10-06T05:47:05.353Z,2
2022-10-06T05:48:05.357Z,2
2022-10-06T05:49:05.361Z,2
2022-10-06T05:50:05.365Z,1
2022-10-06T05:51:05.498Z,2
2022-10-06T05:52:05.628Z,1
2022-10-06T05:53:05.564Z,2
2022-10-06T05:54:05.397Z,2
2022-10-06T05:55:05.365Z,2
2022-10-06T05:56:05.407Z,1
2022-10-06T05:57:05.381Z,2
2022-10-06T05:58:05.383Z,2
2022-10-06T05:59:05.403Z,1
2022-10-06T06:00:05.391Z,2
2022-10-06T06:01:05.390Z,2
2022-10-06T06:02:05.496Z,2
2022-10-06T06:03:05.478Z,1
2022-10-06T06:04:05.388Z,2
2022-10-06T06:05:05.377Z,2
2022-10-06T06:06:05.388Z,1
2022-10-06T06:07:05.366Z,2
2022-10-06T06:08:05.402Z,2
2022-10-06T06:09:05.380Z,2
2022-10-06T06:10:05.378Z,1
2022-10-06T06:11:05.389Z,2
2022-10-06T06:12:05.388Z,1
2022-10-06T06:13:05.369Z,2
2022-10-06T06:14:05.380Z,2
2022-10-06T06:15:05.381Z,1
2022-10-06T06:16:05.397Z,2
2022-10-06T06:17:05.375Z,2
2022-10-06T06:18:05.365Z,2
2022-10-06T06:19:05.373Z,1
2022-10-06T06:20:05.352Z,2
2022-10-06T06:21:05.400Z,2
2022-10-06T06:22:05.364Z,1
2022-10-06T06:23:05.439Z,2
2022-10-06T06:24:05.387Z,2
2022-10-06T06:25:05.373Z,1
2022-10-06T06:27:05.380Z,2
2022-10-06T06:28:05.427Z,2
2022-10-06T06:29:05.526Z,2
2022-10-06T06:30:05.354Z,1
2022-10-06T06:31:05.439Z,2
2022-10-06T06:33:05.406Z,1
2022-10-06T06:34:05.382Z,1
2022-10-06T06:35:05.363Z,2
2022-10-06T06:36:05.376Z,1
2022-10-06T06:37:09.485Z,1
2022-10-06T06:38:05.408Z,2
2022-10-06T06:39:05.382Z,1
2022-10-06T06:40:05.513Z,2
2022-10-06T06:41:05.400Z,2
2022-10-06T06:42:05.369Z,2
2022-10-06T06:43:05.438Z,1
2022-10-06T06:44:05.390Z,2
2022-10-06T06:45:05.378Z,2
2022-10-06T06:46:05.428Z,2
2022-10-06T06:47:05.379Z,1
2022-10-06T06:48:05.375Z,2
2022-10-06T06:49:05.392Z,2
2022-10-06T06:50:05.374Z,2
2022-10-06T06:51:05.372Z,3
2022-10-06T06:53:05.386Z,3
2022-10-06T06:54:05.374Z,1
2022-10-06T06:55:05.519Z,2
2022-10-06T06:56:05.377Z,2
2022-10-06T06:57:05.398Z,1
2022-10-06T06:58:05.388Z,2
2022-10-06T06:59:05.396Z,2
2022-10-06T07:00:05.376Z,2
2022-10-06T07:01:05.440Z,2
2022-10-06T07:02:05.480Z,1
2022-10-06T07:03:05.374Z,2
2022-10-06T07:04:05.369Z,2
2022-10-06T07:05:05.389Z,2
2022-10-06T07:06:05.386Z,2
2022-10-06T07:07:05.376Z,1
2022-10-06T07:08:05.399Z,2
2022-10-06T07:09:05.388Z,2
2022-10-06T07:10:05.380Z,2
2022-10-06T07:11:05.378Z,2
2022-10-06T07:12:05.385Z,1
2022-10-06T07:13:05.387Z,2
2022-10-06T07:14:05.391Z,1
2022-10-06T07:15:05.406Z,2
2022-10-06T07:16:05.508Z,2
2022-10-06T07:17:05.389Z,2
2022-10-06T07:18:05.400Z,2
2022-10-06T07:19:05.375Z,2
2022-10-06T07:20:05.376Z,2
2022-10-06T07:21:05.395Z,1
2022-10-06T07:22:05.400Z,2
2022-10-06T07:23:05.402Z,2
2022-10-06T07:24:05.371Z,2
2022-10-06T07:25:05.386Z,2
2022-10-06T07:26:05.409Z,1
2022-10-06T07:27:05.391Z,2
2022-10-06T07:28:05.462Z,2
2022-10-06T07:29:05.653Z,2
2022-10-06T07:30:05.394Z,2
2022-10-06T07:31:05.457Z,2
2022-10-06T07:32:11.931Z,2
2022-10-06T07:33:05.378Z,2
2022-10-06T07:34:05.390Z,1
2022-10-06T07:35:05.394Z,2
2022-10-06T07:36:05.385Z,2
2022-10-06T07:37:06.566Z,2
2022-10-06T07:38:05.384Z,2
2022-10-06T07:39:05.387Z,2
2022-10-06T07:40:05.378Z,1
2022-10-06T07:41:20.906Z,2
2022-10-06T07:42:05.394Z,2
2022-10-06T07:43:05.401Z,2
2022-10-06T07:44:07.993Z,2
2022-10-06T07:45:05.412Z,2
2022-10-06T07:46:05.457Z,2
2022-10-06T07:47:05.384Z,2
2022-10-06T07:48:05.375Z,2
2022-10-06T07:49:05.407Z,2
2022-10-06T07:50:05.401Z,2
2022-10-06T07:51:05.387Z,2
2022-10-06T07:52:05.395Z,2
2022-10-06T07:53:05.395Z,2
2022-10-06T07:54:05.390Z,2
2022-10-06T07:55:05.395Z,2
2022-10-06T07:56:05.442Z,2
2022-10-06T07:57:05.415Z,2
2022-10-06T07:58:05.381Z,2
2022-10-06T07:59:05.392Z,2
2022-10-06T08:00:05.665Z,2
2022-10-06T08:01:05.379Z,2
2022-10-06T08:02:05.417Z,2
2022-10-06T08:03:05.447Z,2
2022-10-06T08:04:05.384Z,2
2022-10-06T08:05:05.386Z,2
2022-10-06T08:06:05.440Z,2
2022-10-06T08:07:05.387Z,2
2022-10-06T08:08:05.402Z,2
2022-10-06T08:09:05.401Z,2
2022-10-06T08:10:05.388Z,2
2022-10-06T08:11:05.395Z,2
2022-10-06T08:12:05.384Z,3
2022-10-06T08:13:05.394Z,3
2022-10-06T08:14:05.384Z,2
2022-10-06T08:15:07.237Z,3
2022-10-06T08:16:05.492Z,3
2022-10-06T08:17:05.388Z,9
2022-10-06T08:18:16.509Z,10
2022-10-06T08:19:05.400Z,8
2022-10-06T08:20:05.376Z,10
2022-10-06T08:21:05.389Z,20
2022-10-06T08:22:05.404Z,15
2022-10-06T08:23:05.392Z,4
2022-10-06T08:24:05.391Z,3
2022-10-06T08:25:06.813Z,5
2022-10-06T08:26:05.418Z,12
2022-10-06T08:27:05.410Z,8
2022-10-06T08:28:05.476Z,7
2022-10-06T08:29:05.423Z,11
2022-10-06T08:30:05.401Z,10
2022-10-06T08:31:05.465Z,11
2022-10-06T08:33:05.391Z,10
2022-10-06T08:34:09.978Z,9
2022-10-06T08:35:05.410Z,12
2022-10-06T08:36:05.394Z,16
2022-10-06T08:37:20.841Z,25
2022-10-06T08:38:05.399Z,19
2022-10-06T08:39:05.408Z,26
2022-10-06T08:40:05.394Z,20
2022-10-06T08:41:05.380Z,24
2022-10-06T08:42:05.478Z,25
2022-10-06T08:43:05.414Z,35
2022-10-06T08:44:05.392Z,27
2022-10-06T08:45:05.387Z,6
2022-10-06T08:46:05.410Z,5
2022-10-06T08:47:05.404Z,28
2022-10-06T08:48:05.386Z,19
2022-10-06T08:49:05.392Z,8
2022-10-06T08:50:05.399Z,6
2022-10-06T08:51:05.391Z,4
2022-10-06T08:52:05.576Z,4
2022-10-06T08:54:05.384Z,2
2022-10-06T08:55:05.395Z,2
2022-10-06T08:56:05.414Z,2
2022-10-06T08:57:05.392Z,2
2022-10-06T08:59:05.454Z,2
2022-10-06T09:00:05.393Z,2
2022-10-06T09:01:05.453Z,2
2022-10-06T09:02:05.487Z,2
2022-10-06T09:03:05.414Z,2
2022-10-06T09:04:05.413Z,2
2022-10-06T09:05:05.418Z,2
2022-10-06T09:06:05.394Z,2
2022-10-06T09:07:09.192Z,2
2022-10-06T09:08:05.401Z,2
2022-10-06T09:09:05.399Z,2
2022-10-06T09:10:05.413Z,2
2022-10-06T09:11:05.425Z,2
2022-10-06T09:12:05.391Z,2
2022-10-06T09:13:05.414Z,2
2022-10-06T09:14:05.397Z,2
2022-10-06T09:15:05.400Z,2
2022-10-06T09:16:05.501Z,2
2022-10-06T09:17:05.403Z,2
2022-10-06T09:18:05.421Z,2
2022-10-06T09:56:05.465Z,2
2022-10-06T09:57:05.406Z,2
2022-10-06T09:58:05.408Z,2
2022-10-06T09:59:05.423Z,2
2022-10-06T10:00:05.420Z,2
2022-10-06T10:01:05.491Z,2
2022-10-06T10:02:05.413Z,2
2022-10-06T10:03:05.773Z,2
2022-10-06T10:04:21.759Z,2
2022-10-06T10:05:05.422Z,2
2022-10-06T10:06:05.417Z,1
2022-10-06T10:07:05.418Z,2
2022-10-06T10:08:05.398Z,1
2022-10-06T10:09:05.406Z,2
2022-10-06T10:10:05.420Z,2
2022-10-06T10:11:05.412Z,2
2022-10-06T10:12:05.419Z,2
2022-10-06T10:13:05.405Z,2
2022-10-06T10:14:05.401Z,2
2022-10-06T10:15:05.448Z,2
2022-10-06T10:16:05.451Z,2
2022-10-06T10:17:05.413Z,1
2022-10-06T10:18:05.413Z,1
2022-10-06T10:19:05.406Z,1
2022-10-06T10:20:05.422Z,2
2022-10-06T10:21:05.406Z,2
2022-10-06T10:22:05.434Z,1
2022-10-06T10:23:05.413Z,1
2022-10-06T10:24:05.402Z,1
2022-10-06T10:26:05.413Z,2
2022-10-06T10:27:05.481Z,2
2022-10-06T10:28:05.443Z,1
2022-10-06T10:29:05.408Z,2
2022-10-06T10:30:05.418Z,1
2022-10-06T10:31:05.479Z,1
2022-10-06T10:32:05.410Z,2
2022-10-06T10:33:05.410Z,2
2022-10-06T10:34:12.623Z,1
2022-10-06T10:35:05.477Z,1
2022-10-06T10:36:05.425Z,1
2022-10-06T10:37:05.415Z,1
2022-10-06T10:38:05.684Z,2
2022-10-06T10:39:05.403Z,2
2022-10-06T10:40:05.423Z,1
2022-10-06T10:41:05.418Z,1
2022-10-06T10:42:05.428Z,1
2022-10-06T10:43:05.413Z,1
2022-10-06T10:44:05.414Z,1
2022-10-06T10:45:05.446Z,1
2022-10-06T10:46:05.427Z,2
2022-10-06T10:47:05.486Z,2
2022-10-06T10:48:05.423Z,1
2022-10-06T10:49:05.413Z,1
2022-10-06T10:50:05.458Z,2
2022-10-06T10:51:05.434Z,2
2022-10-06T10:52:05.433Z,2
2022-10-06T10:53:05.477Z,2
2022-10-06T10:54:05.431Z,2
2022-10-06T10:55:05.429Z,2
2022-10-06T10:56:05.442Z,1
2022-10-06T10:57:05.437Z,2
2022-10-06T10:58:05.480Z,2
2022-10-06T10:59:05.424Z,1
2022-10-06T11:01:05.481Z,1
2022-10-06T11:02:05.480Z,1
2022-10-06T11:03:05.421Z,1
2022-10-06T11:04:05.413Z,1
2022-10-06T11:05:05.404Z,1
2022-10-06T11:06:05.425Z,1
2022-10-06T11:07:05.420Z,1
2022-10-06T11:08:05.431Z,2
2022-10-06T11:09:05.429Z,1
2022-10-06T11:10:05.486Z,1
2022-10-06T11:11:05.425Z,1
2022-10-06T11:13:05.416Z,1
2022-10-06T11:14:05.465Z,1
2022-10-06T11:15:05.415Z,1
2022-10-06T11:16:05.487Z,1
2022-10-06T11:17:05.414Z,1
2022-10-06T11:18:05.414Z,1
2022-10-06T11:19:05.437Z,1
2022-10-06T11:20:05.438Z,1
2022-10-06T11:21:05.428Z,1
2022-10-06T11:22:05.413Z,1
2022-10-06T11:23:05.404Z,2
2022-10-06T11:24:05.429Z,1
2022-10-06T11:25:05.437Z,1
2022-10-06T11:26:05.431Z,1
2022-10-06T11:27:05.418Z,1
2022-10-06T11:28:05.458Z,1
2022-10-06T11:29:05.581Z,1
2022-10-06T11:30:05.465Z,1
2022-10-06T11:31:05.490Z,1
2022-10-06T11:32:05.426Z,1
2022-10-06T11:33:05.428Z,1
2022-10-06T11:34:05.480Z,1
2022-10-06T11:35:05.429Z,1
2022-10-06T11:36:05.427Z,1
2022-10-06T11:37:05.431Z,1
2022-10-06T11:38:05.417Z,1
2022-10-06T11:39:05.409Z,1
2022-10-06T11:40:05.432Z,1
2022-10-06T11:41:09.398Z,1
2022-10-06T11:42:05.445Z,1
2022-10-06T11:43:05.583Z,1
2022-10-06T11:44:05.428Z,1
2022-10-06T11:45:05.757Z,1
2022-10-06T11:46:05.553Z,1
2022-10-06T11:47:05.436Z,1
2022-10-06T11:48:05.450Z,1
2022-10-06T11:49:05.425Z,1
2022-10-06T11:50:05.445Z,1
2022-10-06T11:51:05.421Z,1
2022-10-06T11:52:08.027Z,1
2022-10-06T11:53:05.434Z,1
2022-10-06T11:54:05.438Z,1
2022-10-06T11:55:05.452Z,1
2022-10-06T11:56:05.432Z,1
2022-10-06T11:57:05.437Z,1
2022-10-06T11:58:23.496Z,1
2022-10-06T11:59:05.439Z,1
2022-10-06T12:00:05.471Z,1
2022-10-06T12:01:05.448Z,1
2022-10-06T12:02:05.569Z,1
2022-10-06T12:03:05.589Z,1
2022-10-06T12:04:05.428Z,1
2022-10-06T12:05:17.981Z,1
2022-10-06T12:06:05.458Z,2
2022-10-06T12:07:05.437Z,1
2022-10-06T12:08:05.432Z,1
2022-10-06T12:09:05.441Z,1
2022-10-06T12:10:05.547Z,1
2022-10-06T12:11:05.429Z,1
2022-10-06T12:12:05.443Z,1
2022-10-06T12:13:09.253Z,1
2022-10-06T12:15:31.869Z,1
2022-10-06T12:16:55.290Z,1
2022-10-06T12:17:12.633Z,1
2022-10-06T12:18:05.436Z,1
2022-10-06T12:19:05.437Z,1
2022-10-06T12:20:05.470Z,1
2022-10-06T12:21:05.448Z,1
2022-10-06T12:22:05.436Z,1
2022-10-06T12:23:05.440Z,1
2022-10-06T12:24:05.527Z,1
2022-10-06T12:25:05.508Z,1
2022-10-06T12:26:05.460Z,1
2022-10-06T12:27:05.504Z,1
2022-10-06T12:28:05.530Z,1
2022-10-06T12:29:05.424Z,1
2022-10-06T12:30:05.475Z,1
2022-10-06T12:31:05.650Z,1
2022-10-06T12:32:05.469Z,2
2022-10-06T12:33:05.431Z,1
2022-10-06T12:34:05.432Z,1
2022-10-06T12:35:05.457Z,1
2022-10-06T12:36:05.439Z,1
2022-10-06T12:37:05.516Z,1
2022-10-06T12:38:05.447Z,2
2022-10-06T12:39:05.451Z,1
2022-10-06T12:40:05.443Z,1
2022-10-06T12:41:05.448Z,1
2022-10-06T12:42:05.463Z,1
2022-10-06T12:43:05.447Z,1
2022-10-06T12:44:05.461Z,1
2022-10-06T12:45:05.478Z,1
2022-10-06T12:46:05.494Z,1
2022-10-06T12:47:05.431Z,1
2022-10-06T12:48:05.454Z,1
2022-10-06T12:49:05.469Z,1
2022-10-06T12:50:05.468Z,1
2022-10-06T12:51:05.457Z,1
2022-10-06T12:53:05.443Z,1
2022-10-06T12:54:05.440Z,1
2022-10-06T12:55:05.454Z,1
2022-10-06T12:56:05.450Z,1
2022-10-06T12:57:05.489Z,1
2022-10-06T12:58:05.447Z,1
2022-10-06T12:59:05.463Z,1
2022-10-06T13:00:05.464Z,1
2022-10-06T13:01:05.542Z,1
2022-10-06T13:02:05.564Z,1
2022-10-06T13:03:05.439Z,1
2022-10-06T13:04:05.458Z,1
2022-10-06T13:05:05.468Z,1
2022-10-06T13:06:05.450Z,1
2022-10-06T13:07:08.619Z,1
2022-10-06T13:08:05.464Z,1
2022-10-06T13:09:05.444Z,1
2022-10-06T13:10:05.466Z,1
2022-10-06T13:11:05.445Z,1
2022-10-06T13:12:05.469Z,1
2022-10-06T13:13:05.450Z,1
2022-10-06T13:14:05.458Z,1
2022-10-06T13:15:05.459Z,1
2022-10-06T13:16:05.466Z,1
2022-10-06T13:17:05.488Z,1
2022-10-06T13:18:05.454Z,1
2022-10-06T13:19:05.450Z,1
2022-10-06T13:20:05.560Z,1
2022-10-06T13:21:05.449Z,1
2022-10-06T13:22:05.448Z,1
2022-10-06T13:23:08.817Z,1
2022-10-06T13:24:05.450Z,1
2022-10-06T13:25:05.475Z,1
2022-10-06T13:26:05.453Z,1
2022-10-06T13:27:05.489Z,1
2022-10-06T13:28:05.504Z,1
2022-10-06T13:29:05.461Z,1
2022-10-06T13:30:05.510Z,1
2022-10-06T13:31:05.471Z,1
2022-10-06T13:32:05.459Z,1
2022-10-06T13:33:05.482Z,1
2022-10-06T13:34:05.453Z,2
2022-10-06T13:35:05.457Z,1
2022-10-06T13:36:05.477Z,1
2022-10-06T13:37:05.505Z,1
2022-10-06T13:38:06.372Z,1
2022-10-06T13:39:05.461Z,1
2022-10-06T13:40:12.304Z,1
2022-10-06T13:41:05.438Z,1
2022-10-06T13:42:05.474Z,1
2022-10-06T13:43:05.470Z,1
2022-10-06T13:44:05.450Z,1
2022-10-06T13:45:05.458Z,1
2022-10-06T13:46:05.527Z,1
2022-10-06T13:47:05.469Z,1
2022-10-06T13:48:05.466Z,1
2022-10-06T13:49:05.454Z,1
2022-10-06T13:50:05.512Z,1
2022-10-06T13:51:05.468Z,1
2022-10-06T13:52:08.764Z,1
2022-10-06T13:53:05.451Z,1
2022-10-06T13:54:05.468Z,1
2022-10-06T13:55:05.480Z,1
2022-10-06T13:56:05.445Z,1
2022-10-06T13:57:05.460Z,1
2022-10-06T13:58:08.620Z,1
2022-10-06T13:59:05.459Z,1
2022-10-06T14:00:05.515Z,1
2022-10-06T14:01:05.524Z,1
2022-10-06T14:02:05.462Z,1
2022-10-06T14:03:05.568Z,1
2022-10-06T14:04:05.476Z,1
2022-10-06T14:05:05.477Z,1
2022-10-06T14:06:05.474Z,1
2022-10-06T14:07:05.465Z,1
2022-10-06T14:08:05.457Z,1
2022-10-06T14:09:05.462Z,1
2022-10-06T14:10:05.467Z,1
2022-10-06T14:11:05.456Z,1
2022-10-06T14:12:05.487Z,1
2022-10-06T14:13:05.465Z,1
2022-10-06T14:14:05.469Z,1
2022-10-06T14:15:05.479Z,1
2022-10-06T14:16:05.518Z,1
2022-10-06T14:18:05.462Z,1
2022-10-06T14:19:05.500Z,1
2022-10-06T14:20:05.492Z,1
2022-10-06T14:21:05.469Z,1
2022-10-06T14:22:05.464Z,1
2022-10-06T14:23:05.457Z,1
2022-10-06T14:24:09.220Z,1
2022-10-06T14:25:05.501Z,1
2022-10-06T14:26:05.461Z,1
2022-10-06T14:27:05.471Z,1
2022-10-06T14:28:05.502Z,1
2022-10-06T14:29:05.477Z,1
2022-10-06T14:30:05.518Z,1
2022-10-06T14:31:05.518Z,1
2022-10-06T14:32:05.467Z,1
2022-10-06T14:33:05.460Z,1
2022-10-06T14:34:05.468Z,1
2022-10-06T14:35:05.511Z,4
2022-10-06T14:36:05.470Z,3
2022-10-06T14:37:05.456Z,3
2022-10-06T14:38:05.453Z,2
2022-10-06T14:39:05.471Z,2
2022-10-06T14:40:10.151Z,1
2022-10-06T14:41:05.459Z,1
2022-10-06T14:42:05.484Z,1
2022-10-06T14:43:05.475Z,1
2022-10-06T14:44:05.475Z,1
2022-10-06T14:45:05.478Z,1
2022-10-06T14:46:06.409Z,1
2022-10-06T14:47:05.480Z,1
2022-10-06T14:48:05.478Z,1
2022-10-06T14:49:05.470Z,1
2022-10-06T14:50:05.474Z,1
2022-10-06T14:51:05.483Z,1
2022-10-06T14:52:05.472Z,1
2022-10-06T14:53:05.469Z,1
2022-10-06T14:54:05.469Z,1
2022-10-06T14:55:05.521Z,1
2022-10-06T14:56:05.477Z,1
2022-10-06T14:57:05.488Z,1
2022-10-06T14:58:05.471Z,1
2022-10-06T14:59:05.462Z,1
2022-10-06T15:00:05.492Z,1
2022-10-06T15:01:05.482Z,1
2022-10-06T15:02:05.468Z,1
2022-10-06T15:03:05.605Z,1
2022-10-06T15:04:05.483Z,1
2022-10-06T15:05:05.540Z,1
2022-10-06T15:06:05.523Z,1
2022-10-06T15:07:05.469Z,1
2022-10-06T15:08:05.483Z,1
2022-10-06T15:09:05.471Z,1
2022-10-06T15:10:05.488Z,1
2022-10-06T15:11:05.475Z,1
2022-10-06T15:12:05.490Z,1
2022-10-06T15:13:05.472Z,1
2022-10-06T15:14:05.478Z,1
2022-10-06T15:15:05.507Z,1
2022-10-06T15:16:05.562Z,1
2022-10-06T15:17:05.481Z,1
2022-10-06T15:18:05.468Z,1
2022-10-06T15:19:05.535Z,1
2022-10-06T15:20:05.494Z,1
2022-10-06T15:21:05.481Z,1
2022-10-06T15:22:05.504Z,1
2022-10-06T15:23:05.482Z,1
2022-10-06T15:24:05.469Z,1
2022-10-06T15:25:05.552Z,1
2022-10-06T15:26:05.494Z,1
2022-10-06T15:27:05.498Z,1
2022-10-06T15:28:05.502Z,1
2022-10-06T15:29:05.477Z,1
2022-10-06T15:30:05.505Z,1
2022-10-06T15:31:05.572Z,1
2022-10-06T15:32:05.481Z,1
2022-10-06T15:33:05.502Z,1
2022-10-06T15:34:05.512Z,1
2022-10-06T15:35:05.610Z,1
2022-10-06T15:36:05.484Z,1
2022-10-06T15:37:05.493Z,1
2022-10-06T15:38:05.486Z,1
2022-10-06T15:39:05.494Z,1
2022-10-06T15:40:05.511Z,1